sensor_id;sensor_type;location;lat;lon;timestamp;pressure;altitude;pressure_sealevel;temperature;humidity
55610;BME280;41486;52.502;13.486;2023-03-04T00:00:38;101269.72;;;2.19;100.00
55610;BME280;41486;52.502;13.486;2023-03-04T00:03:12;101263.88;;;2.13;100.00
55610;BME280;41486;52.502;13.486;2023-03-04T00:05:41;101264.63;;;2.16;100.00
55610;BME280;41486;52.502;13.486;2023-03-04T00:08:13;101258.19;;;2.00;100.00
55610;BME280;41486;52.502;13.486;2023-03-04T00:10:44;101252.72;;;2.09;100.00
55610;BME280;41486;52.502;13.486;2023-03-04T00:13:12;101238.78;;;2.12;100.00
55610;BME280;41486;52.502;13.486;2023-03-04T00:15:41;101246.88;;;2.02;100.00
55610;BME280;41486;52.502;13.486;2023-03-04T00:18:12;101245.22;;;2.00;100.00
55610;BME280;41486;52.502;13.486;2023-03-04T00:20:42;101249.53;;;2.01;100.00
55610;BME280;41486;52.502;13.486;2023-03-04T00:23:13;101252.44;;;2.18;100.00
55610;BME280;41486;52.502;13.486;2023-03-04T00:25:41;101237.69;;;2.19;100.00
55610;BME280;41486;52.502;13.486;2023-03-04T00:28:09;101237.69;;;2.19;100.00
55610;BME280;41486;52.502;13.486;2023-03-04T00:30:41;101240.56;;;2.11;100.00
55610;BME280;41486;52.502;13.486;2023-03-04T00:33:11;101232.66;;;2.14;100.00
55610;BME280;41486;52.502;13.486;2023-03-04T00:35:39;101226.47;;;2.18;100.00
55610;BME280;41486;52.502;13.486;2023-03-04T00:38:10;101237.75;;;2.17;100.00
55610;BME280;41486;52.502;13.486;2023-03-04T00:40:38;101237.91;;;2.13;100.00
55610;BME280;41486;52.502;13.486;2023-03-04T00:43:11;101224.84;;;2.16;100.00
55610;BME280;41486;52.502;13.486;2023-03-04T00:45:41;101219.78;;;2.11;100.00
55610;BME280;41486;52.502;13.486;2023-03-04T00:48:13;101216.38;;;2.09;100.00
55610;BME280;41486;52.502;13.486;2023-03-04T00:50:43;101221.22;;;2.20;100.00
55610;BME280;41486;52.502;13.486;2023-03-04T00:53:14;101222.72;;;2.27;100.00
55610;BME280;41486;52.502;13.486;2023-03-04T00:55:42;101215.06;;;2.23;100.00
55610;BME280;41486;52.502;13.486;2023-03-04T00:58:25;101216.94;;;2.19;100.00
55610;BME280;41486;52.502;13.486;2023-03-04T01:00:55;101210.91;;;2.18;100.00
55610;BME280;41486;52.502;13.486;2023-03-04T01:03:24;101223.81;;;2.20;100.00
55610;BME280;41486;52.502;13.486;2023-03-04T01:05:57;101207.41;;;2.19;100.00
55610;BME280;41486;52.502;13.486;2023-03-04T01:08:25;101201.28;;;2.20;100.00
55610;BME280;41486;52.502;13.486;2023-03-04T01:10:56;101184.06;;;2.18;100.00
55610;BME280;41486;52.502;13.486;2023-03-04T01:13:27;101210.03;;;2.18;100.00
55610;BME280;41486;52.502;13.486;2023-03-04T01:15:56;101203.13;;;2.17;100.00
55610;BME280;41486;52.502;13.486;2023-03-04T01:18:24;101193.41;;;2.24;100.00
55610;BME280;41486;52.502;13.486;2023-03-04T01:20:52;101189.13;;;2.23;100.00
55610;BME280;41486;52.502;13.486;2023-03-04T01:23:20;101186.31;;;2.29;100.00
55610;BME280;41486;52.502;13.486;2023-03-04T01:25:48;101185.47;;;2.28;100.00
55610;BME280;41486;52.502;13.486;2023-03-04T01:28:17;101178.56;;;2.27;100.00
55610;BME280;41486;52.502;13.486;2023-03-04T01:30:46;101179.38;;;2.29;100.00
55610;BME280;41486;52.502;13.486;2023-03-04T01:33:17;101174.78;;;2.38;100.00
55610;BME280;41486;52.502;13.486;2023-03-04T01:35:45;101173.91;;;2.37;100.00
55610;BME280;41486;52.502;13.486;2023-03-04T01:38:13;101186.72;;;2.43;100.00
55610;BME280;41486;52.502;13.486;2023-03-04T01:40:41;101172.94;;;2.41;100.00
55610;BME280;41486;52.502;13.486;2023-03-04T01:43:12;101170.41;;;2.38;100.00
55610;BME280;41486;52.502;13.486;2023-03-04T01:45:42;101182.56;;;2.38;100.00
55610;BME280;41486;52.502;13.486;2023-03-04T01:48:13;101168.53;;;2.43;100.00
55610;BME280;41486;52.502;13.486;2023-03-04T01:50:44;101165.78;;;2.48;100.00
55610;BME280;41486;52.502;13.486;2023-03-04T01:53:16;101158.00;;;2.48;100.00
55610;BME280;41486;52.502;13.486;2023-03-04T01:55:46;101163.00;;;2.52;100.00
55610;BME280;41486;52.502;13.486;2023-03-04T01:58:16;101165.56;;;2.54;100.00
55610;BME280;41486;52.502;13.486;2023-03-04T02:00:44;101160.25;;;2.57;100.00
55610;BME280;41486;52.502;13.486;2023-03-04T02:03:15;101152.19;;;2.65;100.00
55610;BME280;41486;52.502;13.486;2023-03-04T02:05:48;101146.16;;;2.64;100.00
55610;BME280;41486;52.502;13.486;2023-03-04T02:08:19;101151.31;;;2.66;100.00
55610;BME280;41486;52.502;13.486;2023-03-04T02:10:49;101158.97;;;2.69;100.00
55610;BME280;41486;52.502;13.486;2023-03-04T02:13:18;101145.88;;;2.72;100.00
55610;BME280;41486;52.502;13.486;2023-03-04T02:15:46;101137.28;;;2.70;100.00
55610;BME280;41486;52.502;13.486;2023-03-04T02:18:16;101146.56;;;2.77;100.00
55610;BME280;41486;52.502;13.486;2023-03-04T02:20:54;101138.16;;;2.71;100.00
55610;BME280;41486;52.502;13.486;2023-03-04T02:23:25;101124.81;;;2.80;100.00
55610;BME280;41486;52.502;13.486;2023-03-04T02:26:24;101127.38;;;2.81;100.00
55610;BME280;41486;52.502;13.486;2023-03-04T02:28:56;101124.53;;;2.88;100.00
55610;BME280;41486;52.502;13.486;2023-03-04T02:31:27;101125.19;;;2.93;100.00
55610;BME280;41486;52.502;13.486;2023-03-04T02:33:59;101130.19;;;2.99;100.00
55610;BME280;41486;52.502;13.486;2023-03-04T02:36:28;101118.16;;;2.96;100.00
55610;BME280;41486;52.502;13.486;2023-03-04T02:39:02;101112.78;;;3.01;100.00
55610;BME280;41486;52.502;13.486;2023-03-04T02:41:32;101105.75;;;3.03;100.00
55610;BME280;41486;52.502;13.486;2023-03-04T02:44:01;101102.03;;;3.10;100.00
55610;BME280;41486;52.502;13.486;2023-03-04T02:46:29;101097.69;;;3.11;100.00
55610;BME280;41486;52.502;13.486;2023-03-04T02:48:57;101097.72;;;3.09;100.00
55610;BME280;41486;52.502;13.486;2023-03-04T02:51:27;101094.84;;;3.17;100.00
55610;BME280;41486;52.502;13.486;2023-03-04T02:53:54;101091.22;;;3.21;100.00
55610;BME280;41486;52.502;13.486;2023-03-04T02:56:22;101096.25;;;3.26;100.00
55610;BME280;41486;52.502;13.486;2023-03-04T02:58:52;101098.19;;;3.21;100.00
55610;BME280;41486;52.502;13.486;2023-03-04T03:01:20;101098.34;;;3.16;100.00
55610;BME280;41486;52.502;13.486;2023-03-04T03:03:48;101095.81;;;3.14;100.00
55610;BME280;41486;52.502;13.486;2023-03-04T03:06:21;101098.28;;;3.18;100.00
55610;BME280;41486;52.502;13.486;2023-03-04T03:08:49;101091.00;;;3.27;100.00
55610;BME280;41486;52.502;13.486;2023-03-04T03:11:17;101087.44;;;3.30;100.00
55610;BME280;41486;52.502;13.486;2023-03-04T03:13:45;101089.97;;;3.31;100.00
55610;BME280;41486;52.502;13.486;2023-03-04T03:16:15;101091.66;;;3.33;100.00
55610;BME280;41486;52.502;13.486;2023-03-04T03:18:43;101083.78;;;3.34;100.00
55610;BME280;41486;52.502;13.486;2023-03-04T03:21:11;101085.38;;;3.38;100.00
55610;BME280;41486;52.502;13.486;2023-03-04T03:23:39;101086.38;;;3.34;100.00
55610;BME280;41486;52.502;13.486;2023-03-04T03:26:07;101087.91;;;3.40;100.00
55610;BME280;41486;52.502;13.486;2023-03-04T03:28:36;101092.22;;;3.41;100.00
55610;BME280;41486;52.502;13.486;2023-03-04T03:31:04;101084.94;;;3.27;100.00
55610;BME280;41486;52.502;13.486;2023-03-04T03:33:34;101074.25;;;3.35;100.00
55610;BME280;41486;52.502;13.486;2023-03-04T03:36:02;101083.59;;;3.39;100.00
55610;BME280;41486;52.502;13.486;2023-03-04T03:38:32;101075.06;;;3.35;100.00
55610;BME280;41486;52.502;13.486;2023-03-04T03:41:00;101066.38;;;3.36;100.00
55610;BME280;41486;52.502;13.486;2023-03-04T03:43:28;101061.06;;;3.39;100.00
55610;BME280;41486;52.502;13.486;2023-03-04T03:45:56;101062.78;;;3.39;100.00
55610;BME280;41486;52.502;13.486;2023-03-04T03:48:24;101066.31;;;3.38;100.00
55610;BME280;41486;52.502;13.486;2023-03-04T03:50:53;101067.56;;;3.50;100.00
55610;BME280;41486;52.502;13.486;2023-03-04T03:53:21;101059.22;;;3.41;100.00
55610;BME280;41486;52.502;13.486;2023-03-04T03:55:49;101055.88;;;3.38;100.00
55610;BME280;41486;52.502;13.486;2023-03-04T03:58:17;101055.72;;;3.42;100.00
55610;BME280;41486;52.502;13.486;2023-03-04T04:00:45;101047.88;;;3.44;100.00
55610;BME280;41486;52.502;13.486;2023-03-04T04:03:14;101046.03;;;3.46;100.00
55610;BME280;41486;52.502;13.486;2023-03-04T04:05:42;101050.16;;;3.52;100.00
55610;BME280;41486;52.502;13.486;2023-03-04T04:08:13;101050.16;;;3.52;100.00
55610;BME280;41486;52.502;13.486;2023-03-04T04:10:41;101050.03;;;3.55;100.00
55610;BME280;41486;52.502;13.486;2023-03-04T04:13:09;101050.88;;;3.55;100.00
55610;BME280;41486;52.502;13.486;2023-03-04T04:15:38;101043.94;;;3.56;100.00
55610;BME280;41486;52.502;13.486;2023-03-04T04:18:06;101046.28;;;3.62;100.00
55610;BME280;41486;52.502;13.486;2023-03-04T04:20:35;101054.78;;;3.66;100.00
55610;BME280;41486;52.502;13.486;2023-03-04T04:23:03;101037.38;;;3.68;100.00
55610;BME280;41486;52.502;13.486;2023-03-04T04:25:33;101037.47;;;3.65;100.00
55610;BME280;41486;52.502;13.486;2023-03-04T04:28:00;101039.91;;;3.47;100.00
55610;BME280;41486;52.502;13.486;2023-03-04T04:30:28;101039.09;;;3.67;100.00
55610;BME280;41486;52.502;13.486;2023-03-04T04:32:56;101044.19;;;3.70;100.00
55610;BME280;41486;52.502;13.486;2023-03-04T04:35:27;101022.47;;;3.71;100.00
55610;BME280;41486;52.502;13.486;2023-03-04T04:37:55;101031.00;;;3.75;100.00
55610;BME280;41486;52.502;13.486;2023-03-04T04:40:23;101029.88;;;3.81;100.00
55610;BME280;41486;52.502;13.486;2023-03-04T04:42:52;101031.56;;;3.82;100.00
55610;BME280;41486;52.502;13.486;2023-03-04T04:45:20;101020.59;;;3.75;100.00
55610;BME280;41486;52.502;13.486;2023-03-04T04:47:51;101024.88;;;3.76;100.00
55610;BME280;41486;52.502;13.486;2023-03-04T04:50:19;101030.47;;;3.67;100.00
55610;BME280;41486;52.502;13.486;2023-03-04T04:52:47;101027.59;;;3.73;100.00
55610;BME280;41486;52.502;13.486;2023-03-04T04:55:15;101027.72;;;3.70;100.00
55610;BME280;41486;52.502;13.486;2023-03-04T04:57:45;101026.81;;;3.71;100.00
55610;BME280;41486;52.502;13.486;2023-03-04T05:00:16;101026.78;;;3.72;100.00
55610;BME280;41486;52.502;13.486;2023-03-04T05:02:45;101020.41;;;3.79;100.00
55610;BME280;41486;52.502;13.486;2023-03-04T05:05:13;101021.56;;;3.72;100.00
55610;BME280;41486;52.502;13.486;2023-03-04T05:07:41;101012.69;;;3.76;100.00
55610;BME280;41486;52.502;13.486;2023-03-04T05:10:09;101016.22;;;3.75;100.00
55610;BME280;41486;52.502;13.486;2023-03-04T05:12:37;101003.28;;;3.74;100.00
55610;BME280;41486;52.502;13.486;2023-03-04T05:15:06;101015.94;;;3.82;100.00
55610;BME280;41486;52.502;13.486;2023-03-04T05:17:36;101018.81;;;3.75;100.00
55610;BME280;41486;52.502;13.486;2023-03-04T05:20:04;101014.13;;;3.84;100.00
55610;BME280;41486;52.502;13.486;2023-03-04T05:22:32;101007.50;;;3.76;100.00
55610;BME280;41486;52.502;13.486;2023-03-04T05:25:01;101014.22;;;3.82;100.00
55610;BME280;41486;52.502;13.486;2023-03-04T05:27:29;101017.78;;;3.79;100.00
55610;BME280;41486;52.502;13.486;2023-03-04T05:29:57;101008.28;;;3.78;100.00
55610;BME280;41486;52.502;13.486;2023-03-04T05:32:26;101021.31;;;3.78;100.00
55610;BME280;41486;52.502;13.486;2023-03-04T05:34:56;101013.09;;;3.88;100.00
55610;BME280;41486;52.502;13.486;2023-03-04T05:37:24;101017.00;;;3.98;100.00
55610;BME280;41486;52.502;13.486;2023-03-04T05:39:52;101007.81;;;3.89;100.00
55610;BME280;41486;52.502;13.486;2023-03-04T05:42:20;101010.94;;;3.77;100.00
55610;BME280;41486;52.502;13.486;2023-03-04T05:44:48;101011.34;;;3.88;100.00
55610;BME280;41486;52.502;13.486;2023-03-04T05:47:16;101015.53;;;3.92;100.00
55610;BME280;41486;52.502;13.486;2023-03-04T05:49:44;101005.03;;;3.94;100.00
55610;BME280;41486;52.502;13.486;2023-03-04T05:52:13;101013.34;;;4.02;100.00
55610;BME280;41486;52.502;13.486;2023-03-04T05:54:41;101006.72;;;3.95;100.00
55610;BME280;41486;52.502;13.486;2023-03-04T05:57:09;101007.56;;;3.95;100.00
55610;BME280;41486;52.502;13.486;2023-03-04T05:59:37;101015.09;;;4.02;100.00
55610;BME280;41486;52.502;13.486;2023-03-04T06:02:05;101002.16;;;4.00;100.00
55610;BME280;41486;52.502;13.486;2023-03-04T06:04:33;101013.34;;;4.02;100.00
55610;BME280;41486;52.502;13.486;2023-03-04T06:07:01;101008.09;;;3.83;100.00
55610;BME280;41486;52.502;13.486;2023-03-04T06:09:32;101011.25;;;3.90;100.00
55610;BME280;41486;52.502;13.486;2023-03-04T06:12:00;101017.66;;;4.03;100.00
55610;BME280;41486;52.502;13.486;2023-03-04T06:14:28;101008.00;;;4.05;100.00
55610;BME280;41486;52.502;13.486;2023-03-04T06:16:56;101007.16;;;4.05;100.00
55610;BME280;41486;52.502;13.486;2023-03-04T06:19:24;101017.13;;;3.95;100.00
55610;BME280;41486;52.502;13.486;2023-03-04T06:21:52;101013.56;;;3.98;100.00
55610;BME280;41486;52.502;13.486;2023-03-04T06:24:23;101014.00;;;4.07;100.00
55610;BME280;41486;52.502;13.486;2023-03-04T06:26:52;101014.47;;;3.97;100.00
55610;BME280;41486;52.502;13.486;2023-03-04T06:29:20;101017.66;;;4.03;100.00
55610;BME280;41486;52.502;13.486;2023-03-04T06:31:48;101017.25;;;3.92;100.00
55610;BME280;41486;52.502;13.486;2023-03-04T06:34:17;101019.28;;;4.06;100.00
55610;BME280;41486;52.502;13.486;2023-03-04T06:36:45;101021.97;;;4.04;100.00
55610;BME280;41486;52.502;13.486;2023-03-04T06:39:13;101022.06;;;4.01;100.00
55610;BME280;41486;52.502;13.486;2023-03-04T06:41:41;101021.56;;;3.93;100.00
55610;BME280;41486;52.502;13.486;2023-03-04T06:44:11;101013.88;;;3.90;100.00
55610;BME280;41486;52.502;13.486;2023-03-04T06:46:39;101026.50;;;3.99;100.00
55610;BME280;41486;52.502;13.486;2023-03-04T06:49:07;101014.91;;;3.86;100.00
55610;BME280;41486;52.502;13.486;2023-03-04T06:51:35;101020.78;;;3.91;100.00
55610;BME280;41486;52.502;13.486;2023-03-04T06:54:03;101024.44;;;3.87;100.00
55610;BME280;41486;52.502;13.486;2023-03-04T06:56:31;101026.25;;;3.85;100.00
55610;BME280;41486;52.502;13.486;2023-03-04T06:58:59;101025.16;;;3.90;100.00
55610;BME280;41486;52.502;13.486;2023-03-04T07:01:28;101027.75;;;3.90;100.00
55610;BME280;41486;52.502;13.486;2023-03-04T07:03:56;101022.59;;;3.89;100.00
55610;BME280;41486;52.502;13.486;2023-03-04T07:06:27;101033.59;;;3.95;100.00
55610;BME280;41486;52.502;13.486;2023-03-04T07:08:58;101028.13;;;4.02;100.00
55610;BME280;41486;52.502;13.486;2023-03-04T07:11:26;101032.38;;;4.04;100.00
55610;BME280;41486;52.502;13.486;2023-03-04T07:13:54;101029.50;;;4.10;100.00
55610;BME280;41486;52.502;13.486;2023-03-04T07:16:23;101032.31;;;4.06;100.00
55610;BME280;41486;52.502;13.486;2023-03-04T07:18:52;101028.78;;;4.07;100.00
55610;BME280;41486;52.502;13.486;2023-03-04T07:21:20;101022.00;;;4.03;100.00
55610;BME280;41486;52.502;13.486;2023-03-04T07:23:48;101029.97;;;4.00;100.00
55610;BME280;41486;52.502;13.486;2023-03-04T07:26:16;101023.25;;;3.94;100.00
55610;BME280;41486;52.502;13.486;2023-03-04T07:28:44;101032.88;;;3.92;100.00
55610;BME280;41486;52.502;13.486;2023-03-04T07:31:19;101044.34;;;3.88;100.00
55610;BME280;41486;52.502;13.486;2023-03-04T07:33:48;101025.00;;;3.93;100.00
55610;BME280;41486;52.502;13.486;2023-03-04T07:36:18;101027.28;;;4.01;100.00
55610;BME280;41486;52.502;13.486;2023-03-04T07:38:48;101036.13;;;3.97;100.00
55610;BME280;41486;52.502;13.486;2023-03-04T07:41:17;101028.97;;;4.02;100.00
55610;BME280;41486;52.502;13.486;2023-03-04T07:43:45;101028.47;;;3.94;100.00
55610;BME280;41486;52.502;13.486;2023-03-04T07:46:13;101026.63;;;4.17;100.00
55610;BME280;41486;52.502;13.486;2023-03-04T07:48:41;101036.34;;;4.13;100.00
55610;BME280;41486;52.502;13.486;2023-03-04T07:51:12;101030.03;;;4.19;100.00
55610;BME280;41486;52.502;13.486;2023-03-04T07:53:45;101031.97;;;4.14;100.00
55610;BME280;41486;52.502;13.486;2023-03-04T07:56:15;101030.34;;;4.11;100.00
55610;BME280;41486;52.502;13.486;2023-03-04T07:58:44;101028.44;;;4.15;100.00
55610;BME280;41486;52.502;13.486;2023-03-04T08:01:15;101025.19;;;4.09;100.00
55610;BME280;41486;52.502;13.486;2023-03-04T08:03:43;101031.00;;;4.16;100.00
55610;BME280;41486;52.502;13.486;2023-03-04T08:06:13;101023.22;;;4.15;100.00
55610;BME280;41486;52.502;13.486;2023-03-04T08:08:43;101023.69;;;4.24;100.00
55610;BME280;41486;52.502;13.486;2023-03-04T08:11:13;101028.75;;;4.28;100.00
55610;BME280;41486;52.502;13.486;2023-03-04T08:13:41;101031.28;;;4.29;100.00
55610;BME280;41486;52.502;13.486;2023-03-04T08:16:11;101026.75;;;4.34;100.00
55610;BME280;41486;52.502;13.486;2023-03-04T08:18:45;101021.56;;;4.33;100.00
55610;BME280;41486;52.502;13.486;2023-03-04T08:21:15;101009.06;;;4.41;100.00
55610;BME280;41486;52.502;13.486;2023-03-04T08:23:46;101016.66;;;4.46;100.00
55610;BME280;41486;52.502;13.486;2023-03-04T08:26:16;101012.59;;;4.40;100.00
55610;BME280;41486;52.502;13.486;2023-03-04T08:28:45;101014.34;;;4.39;100.00
55610;BME280;41486;52.502;13.486;2023-03-04T08:31:15;101021.13;;;4.44;100.00
55610;BME280;41486;52.502;13.486;2023-03-04T08:33:44;101011.75;;;4.39;100.00
55610;BME280;41486;52.502;13.486;2023-03-04T08:36:12;101009.63;;;4.48;100.00
55610;BME280;41486;52.502;13.486;2023-03-04T08:38:41;101021.97;;;4.44;100.00
55610;BME280;41486;52.502;13.486;2023-03-04T08:41:12;101012.03;;;4.52;100.00
55610;BME280;41486;52.502;13.486;2023-03-04T08:43:42;101009.34;;;4.54;100.00
55610;BME280;41486;52.502;13.486;2023-03-04T08:46:10;101003.09;;;4.58;100.00
55610;BME280;41486;52.502;13.486;2023-03-04T08:48:39;101007.94;;;4.66;100.00
55610;BME280;41486;52.502;13.486;2023-03-04T08:51:08;100991.19;;;4.71;100.00
55610;BME280;41486;52.502;13.486;2023-03-04T08:53:36;100994.44;;;4.77;100.00
55610;BME280;41486;52.502;13.486;2023-03-04T08:56:06;100995.91;;;4.82;100.00
55610;BME280;41486;52.502;13.486;2023-03-04T08:58:36;100998.38;;;4.85;100.00
55610;BME280;41486;52.502;13.486;2023-03-04T09:01:06;100983.50;;;4.87;100.00
55610;BME280;41486;52.502;13.486;2023-03-04T09:03:35;100990.13;;;4.95;100.00
55610;BME280;41486;52.502;13.486;2023-03-04T09:06:05;100987.22;;;5.01;100.00
55610;BME280;41486;52.502;13.486;2023-03-04T09:08:34;100979.47;;;4.99;100.00
55610;BME280;41486;52.502;13.486;2023-03-04T09:11:14;100982.41;;;5.11;100.00
55610;BME280;41486;52.502;13.486;2023-03-04T09:13:44;101001.44;;;5.13;100.00
55610;BME280;41486;52.502;13.486;2023-03-04T09:16:13;100990.09;;;5.14;100.00
55610;BME280;41486;52.502;13.486;2023-03-04T09:18:42;100979.34;;;5.20;100.00
55610;BME280;41486;52.502;13.486;2023-03-04T09:21:10;100992.03;;;5.28;100.00
55610;BME280;41486;52.502;13.486;2023-03-04T09:23:39;100998.47;;;5.20;100.00
55610;BME280;41486;52.502;13.486;2023-03-04T09:26:19;100995.63;;;5.25;100.00
55610;BME280;41486;52.502;13.486;2023-03-04T09:28:56;101005.59;;;5.34;100.00
55610;BME280;41486;52.502;13.486;2023-03-04T09:31:25;100994.47;;;5.31;100.00
55610;BME280;41486;52.502;13.486;2023-03-04T09:33:55;100996.94;;;5.34;100.00
55610;BME280;41486;52.502;13.486;2023-03-04T09:36:24;101004.56;;;5.39;100.00
55610;BME280;41486;52.502;13.486;2023-03-04T09:38:52;101016.91;;;5.35;100.00
55610;BME280;41486;52.502;13.486;2023-03-04T09:41:22;101005.59;;;5.34;100.00
55610;BME280;41486;52.502;13.486;2023-03-04T09:43:53;101013.09;;;5.42;100.00
55610;BME280;41486;52.502;13.486;2023-03-04T09:46:28;101008.69;;;5.43;100.00
55610;BME280;41486;52.502;13.486;2023-03-04T09:48:59;101007.56;;;5.48;100.00
55610;BME280;41486;52.502;13.486;2023-03-04T09:51:40;101008.38;;;5.49;100.00
55610;BME280;41486;52.502;13.486;2023-03-04T09:55:33;101015.84;;;5.57;100.00
55610;BME280;41486;52.502;13.486;2023-03-04T09:58:00;100999.81;;;5.47;100.00
55610;BME280;41486;52.502;13.486;2023-03-04T10:00:34;101011.00;;;5.49;100.00
55610;BME280;41486;52.502;13.486;2023-03-04T10:03:11;101010.78;;;5.53;100.00
55610;BME280;41486;52.502;13.486;2023-03-04T10:05:50;101005.63;;;5.52;100.00
55610;BME280;41486;52.502;13.486;2023-03-04T10:08:33;101006.56;;;5.51;100.00
55610;BME280;41486;52.502;13.486;2023-03-04T10:11:12;101004.03;;;5.49;100.00
55610;BME280;41486;52.502;13.486;2023-03-04T10:17:23;101002.09;;;5.53;100.00
55610;BME280;41486;52.502;13.486;2023-03-04T10:19:58;101015.28;;;5.50;100.00
55610;BME280;41486;52.502;13.486;2023-03-04T10:22:31;101006.88;;;5.62;100.00
55610;BME280;41486;52.502;13.486;2023-03-04T10:25:13;101003.50;;;5.60;100.00
55610;BME280;41486;52.502;13.486;2023-03-04T10:27:43;100995.88;;;5.56;100.00
55610;BME280;41486;52.502;13.486;2023-03-04T10:30:21;100997.66;;;5.55;100.00
55610;BME280;41486;52.502;13.486;2023-03-04T10:32:52;101003.63;;;5.57;100.00
55610;BME280;41486;52.502;13.486;2023-03-04T10:35:26;101001.75;;;5.61;100.00
55610;BME280;41486;52.502;13.486;2023-03-04T10:38:01;101005.09;;;5.63;100.00
55610;BME280;41486;52.502;13.486;2023-03-04T10:40:36;100991.13;;;5.64;98.30
55610;BME280;41486;52.502;13.486;2023-03-04T10:43:05;100996.53;;;5.61;98.48
55610;BME280;41486;52.502;13.486;2023-03-04T10:45:37;100995.56;;;5.62;98.17
55610;BME280;41486;52.502;13.486;2023-03-04T10:48:17;100981.81;;;5.58;97.35
55610;BME280;41486;52.502;13.486;2023-03-04T10:50:46;100999.19;;;5.59;95.62
55610;BME280;41486;52.502;13.486;2023-03-04T10:53:24;100997.50;;;5.58;94.57
55610;BME280;41486;52.502;13.486;2023-03-04T10:55:53;100998.56;;;5.54;93.47
55610;BME280;41486;52.502;13.486;2023-03-04T10:58:24;100994.19;;;5.55;92.90
55610;BME280;41486;52.502;13.486;2023-03-04T11:01:00;101005.72;;;5.50;91.32
55610;BME280;41486;52.502;13.486;2023-03-04T11:03:35;100998.03;;;5.65;91.45
55610;BME280;41486;52.502;13.486;2023-03-04T11:06:15;100992.28;;;5.58;91.05
55610;BME280;41486;52.502;13.486;2023-03-04T11:08:52;101011.88;;;5.67;90.84
55610;BME280;41486;52.502;13.486;2023-03-04T11:11:28;101016.22;;;5.66;88.57
55610;BME280;41486;52.502;13.486;2023-03-04T11:14:05;101011.00;;;5.66;88.92
55610;BME280;41486;52.502;13.486;2023-03-04T11:16:52;101016.00;;;5.71;88.75
55610;BME280;41486;52.502;13.486;2023-03-04T11:19:34;101014.78;;;5.61;89.91
55610;BME280;41486;52.502;13.486;2023-03-04T11:25:20;101021.16;;;5.73;88.90
55610;BME280;41486;52.502;13.486;2023-03-04T11:27:53;101006.56;;;5.68;89.09
55610;BME280;41486;52.502;13.486;2023-03-04T11:30:30;101013.25;;;5.74;89.35
55610;BME280;41486;52.502;13.486;2023-03-04T11:33:09;101010.00;;;5.87;89.77
55610;BME280;41486;52.502;13.486;2023-03-04T11:35:47;101018.84;;;5.84;88.82
55610;BME280;41486;52.502;13.486;2023-03-04T11:38:19;101021.00;;;5.76;89.82
55610;BME280;41486;52.502;13.486;2023-03-04T11:40:51;101016.38;;;5.81;89.11
55610;BME280;41486;52.502;13.486;2023-03-04T11:43:24;101017.56;;;5.93;87.89
55610;BME280;41486;52.502;13.486;2023-03-04T11:46:10;101021.78;;;5.95;87.50
55610;BME280;41486;52.502;13.486;2023-03-04T11:48:49;101014.84;;;5.94;83.18
55610;BME280;41486;52.502;13.486;2023-03-04T11:51:27;101014.41;;;5.86;81.61
55610;BME280;41486;52.502;13.486;2023-03-04T11:54:13;101019.44;;;5.89;82.28
55610;BME280;41486;52.502;13.486;2023-03-04T11:56:44;101014.00;;;5.94;81.47
55610;BME280;41486;52.502;13.486;2023-03-04T11:59:33;101007.78;;;5.96;80.25
55610;BME280;41486;52.502;13.486;2023-03-04T12:02:15;101013.31;;;5.90;79.94
55610;BME280;41486;52.502;13.486;2023-03-04T12:05:18;101025.16;;;5.80;80.33
55610;BME280;41486;52.502;13.486;2023-03-04T12:08:07;101019.63;;;5.86;81.11
55610;BME280;41486;52.502;13.486;2023-03-04T12:11:00;101015.31;;;5.85;82.21
55610;BME280;41486;52.502;13.486;2023-03-04T12:13:44;101013.78;;;5.81;82.50
55610;BME280;41486;52.502;13.486;2023-03-04T12:16:32;101009.41;;;5.81;82.55
55610;BME280;41486;52.502;13.486;2023-03-04T12:19:13;101016.78;;;5.73;82.18
55610;BME280;41486;52.502;13.486;2023-03-04T12:22:13;101030.84;;;5.71;82.33
55610;BME280;41486;52.502;13.486;2023-03-04T12:24:56;101016.00;;;5.71;81.81
55610;BME280;41486;52.502;13.486;2023-03-04T12:27:35;101000.97;;;5.76;81.21
55610;BME280;41486;52.502;13.486;2023-03-04T12:32:50;101007.41;;;5.87;79.16
55610;BME280;41486;52.502;13.486;2023-03-04T12:35:32;101006.72;;;5.83;78.50
55610;BME280;41486;52.502;13.486;2023-03-04T12:38:14;101015.53;;;5.98;78.73
55610;BME280;41486;52.502;13.486;2023-03-04T12:40:51;101008.34;;;6.03;76.74
55610;BME280;41486;52.502;13.486;2023-03-04T12:43:41;101009.34;;;6.00;76.21
55610;BME280;41486;52.502;13.486;2023-03-04T12:49:28;101019.16;;;5.95;75.60
55610;BME280;41486;52.502;13.486;2023-03-04T12:52:09;101011.47;;;5.92;73.84
55610;BME280;41486;52.502;13.486;2023-03-04T12:54:44;101009.94;;;5.88;71.59
55610;BME280;41486;52.502;13.486;2023-03-04T12:57:16;101026.44;;;5.71;73.80
55610;BME280;41486;52.502;13.486;2023-03-04T12:59:53;101013.63;;;5.84;70.73
55610;BME280;41486;52.502;13.486;2023-03-04T13:02:54;101016.09;;;5.87;71.16
55610;BME280;41486;52.502;13.486;2023-03-04T13:05:43;101010.94;;;5.85;70.54
55610;BME280;41486;52.502;13.486;2023-03-04T13:08:23;101000.47;;;5.85;70.06
55610;BME280;41486;52.502;13.486;2023-03-04T13:11:00;101009.25;;;5.84;69.50
55610;BME280;41486;52.502;13.486;2023-03-04T13:13:37;101004.22;;;5.99;68.40
55610;BME280;41486;52.502;13.486;2023-03-04T13:16:23;101002.03;;;5.90;68.35
55610;BME280;41486;52.502;13.486;2023-03-04T13:18:59;101005.09;;;5.80;68.19